createdAt,value
2023-11-30T10:21:43.501Z,55.10
2023-11-30T10:24:13.659Z,53.80
2023-11-30T10:26:46.332Z,54.10
2023-11-30T10:29:22.648Z,52.50
2023-11-30T10:31:57.607Z,52.50
2023-11-30T10:34:32.217Z,52.20
2023-11-30T10:37:06.545Z,51.90
2023-11-30T10:39:45.600Z,51.20
2023-11-30T10:42:18.446Z,49.50
2023-11-30T10:44:52.483Z,50.40
2023-11-30T10:47:22.219Z,50.50
2023-11-30T10:49:54.066Z,50.50
2023-11-30T10:52:25.484Z,52.30
2023-11-30T10:55:05.317Z,54.50
2023-11-30T10:57:35.021Z,56.80
2023-11-30T11:00:04.783Z,58.50
2023-11-30T11:02:42.770Z,58.70
2023-11-30T11:05:14.887Z,58.00
2023-11-30T11:07:52.715Z,58.20
2023-11-30T11:10:26.253Z,59.00
2023-11-30T11:12:58.813Z,58.10
2023-11-30T11:15:29.895Z,58.30
2023-11-30T11:18:05.166Z,56.80
2023-11-30T11:20:37.554Z,56.70
2023-11-30T11:23:15.811Z,56.80
2023-11-30T11:25:52.014Z,56.60
2023-11-30T11:28:21.114Z,57.50
2023-11-30T11:30:55.253Z,55.10
2023-11-30T11:33:26.030Z,55.50
2023-11-30T11:35:57.640Z,58.00
2023-11-30T11:38:28.944Z,60.70
2023-11-30T11:41:00.779Z,61.60
2023-11-30T11:43:32.194Z,60.00
2023-11-30T11:46:04.153Z,61.70
2023-11-30T11:48:34.054Z,63.60
2023-11-30T11:51:03.145Z,62.20
2023-11-30T11:53:33.765Z,60.20
2023-11-30T11:56:09.919Z,58.30
2023-11-30T11:58:40.731Z,58.80
2023-11-30T12:01:09.824Z,57.30
2023-11-30T12:03:48.440Z,58.90
2023-11-30T12:06:28.769Z,60.50
2023-11-30T12:09:12.857Z,61.20
2023-11-30T12:11:46.178Z,62.30
2023-11-30T12:14:16.818Z,62.00
2023-11-30T12:16:46.263Z,60.40
2023-11-30T12:19:20.523Z,60.50
2023-11-30T12:21:50.869Z,59.90
2023-11-30T12:24:22.737Z,60.90
2023-11-30T12:26:52.723Z,59.70
2023-11-30T12:29:23.148Z,62.30
2023-11-30T12:31:53.523Z,65.30
2023-11-30T12:34:25.167Z,65.80
2023-11-30T12:37:17.506Z,62.60
2023-11-30T12:39:48.378Z,64.20
2023-11-30T12:42:19.900Z,66.10
2023-11-30T12:44:49.547Z,66.90
2023-11-30T12:47:18.686Z,65.80
2023-11-30T12:49:49.307Z,68.40
2023-11-30T12:52:18.719Z,72.40
2023-11-30T12:54:53.681Z,77.10
2023-11-30T12:57:25.104Z,83.00
2023-11-30T12:59:55.656Z,92.90
2023-11-30T13:02:25.715Z,99.60
2023-11-30T13:04:55.290Z,99.90
2023-11-30T13:07:25.564Z,99.90
2023-11-30T13:09:56.511Z,99.90
2023-11-30T13:12:30.302Z,99.90
2023-11-30T13:14:59.628Z,99.90
2023-11-30T13:17:29.765Z,99.90
2023-11-30T13:20:00.277Z,99.90
2023-11-30T13:22:50.603Z,99.90
2023-11-30T13:25:24.437Z,99.90
2023-11-30T13:27:53.915Z,99.90
2023-11-30T13:30:23.292Z,99.90
2023-11-30T13:32:52.309Z,99.90
2023-11-30T13:35:21.667Z,99.90
2023-11-30T13:37:51.501Z,99.90
2023-11-30T13:40:22.793Z,99.90
2023-11-30T13:42:52.783Z,99.90
2023-11-30T13:45:25.820Z,99.90
2023-11-30T13:47:55.223Z,99.90
2023-11-30T13:50:30.750Z,99.90
2023-11-30T13:53:06.447Z,99.90
2023-11-30T13:55:37.645Z,99.90
2023-11-30T13:58:09.072Z,99.90
2023-11-30T14:00:38.830Z,99.90
2023-11-30T14:03:08.134Z,99.90
2023-11-30T14:05:37.230Z,99.90
2023-11-30T14:08:07.017Z,99.90
2023-11-30T14:10:38.319Z,99.90
2023-11-30T14:13:09.088Z,99.90
2023-11-30T14:15:42.832Z,99.90
2023-11-30T14:18:11.973Z,99.90
2023-11-30T14:20:43.040Z,99.90
2023-11-30T14:23:12.507Z,99.90
2023-11-30T14:25:43.585Z,99.90
2023-11-30T14:28:13.966Z,99.90
2023-11-30T14:30:44.651Z,99.90
2023-11-30T14:33:14.579Z,99.90
2023-11-30T14:35:44.008Z,99.90
2023-11-30T14:38:13.315Z,99.90
2023-11-30T14:40:44.182Z,99.90
2023-11-30T14:43:14.031Z,99.90
2023-11-30T14:45:43.787Z,99.90
2023-11-30T14:48:13.469Z,99.90
2023-11-30T14:50:43.119Z,99.90
2023-11-30T14:53:12.845Z,99.90
2023-11-30T14:55:43.702Z,99.90
2023-11-30T14:58:13.381Z,99.90
2023-11-30T15:00:42.744Z,99.90
2023-11-30T15:03:12.707Z,99.90
2023-11-30T15:05:45.844Z,99.90
2023-11-30T15:08:16.425Z,99.90
2023-11-30T15:10:50.983Z,99.90
2023-11-30T15:13:21.795Z,99.90
2023-11-30T15:15:51.392Z,99.90
2023-11-30T15:18:21.975Z,99.90
2023-11-30T15:20:53.381Z,99.90
2023-11-30T15:23:27.216Z,99.90
2023-11-30T15:25:58.257Z,99.90
2023-11-30T15:28:27.873Z,99.90
2023-11-30T15:31:00.934Z,99.90
2023-11-30T15:33:30.888Z,99.90
2023-11-30T15:36:04.074Z,99.90
2023-11-30T15:38:35.441Z,99.90
2023-11-30T15:41:11.605Z,99.90
2023-11-30T15:43:41.518Z,99.90
2023-11-30T15:46:13.467Z,99.90
2023-11-30T15:48:43.362Z,99.90
2023-11-30T15:51:13.333Z,99.90
2023-11-30T15:53:42.940Z,99.90
2023-11-30T15:56:22.132Z,99.90
2023-11-30T15:58:55.574Z,99.90
2023-11-30T16:01:28.642Z,99.90
2023-11-30T16:03:59.627Z,99.90
2023-11-30T16:06:33.952Z,99.90
2023-11-30T16:09:10.791Z,99.90
2023-11-30T16:11:42.143Z,99.90
2023-11-30T16:14:12.118Z,99.90
2023-11-30T16:16:43.008Z,99.90
2023-11-30T16:19:12.685Z,99.90
2023-11-30T16:21:42.551Z,99.90
2023-11-30T16:24:12.426Z,99.90
2023-11-30T16:26:44.205Z,99.90
2023-11-30T16:29:22.529Z,99.90
2023-11-30T16:31:53.435Z,99.90
2023-11-30T16:34:32.200Z,99.90
2023-11-30T16:37:08.658Z,99.90
2023-11-30T16:39:41.401Z,99.90
2023-11-30T16:42:14.974Z,99.90
2023-11-30T16:44:48.084Z,99.90
2023-11-30T16:47:19.703Z,99.90
2023-11-30T16:49:49.560Z,99.90
2023-11-30T16:52:19.150Z,99.90
2023-11-30T16:54:48.451Z,99.90
2023-11-30T16:57:19.348Z,99.90
2023-11-30T16:59:49.196Z,99.90
2023-11-30T17:02:18.704Z,99.90
2023-11-30T17:04:48.421Z,99.90
2023-11-30T17:07:17.960Z,99.90
2023-11-30T17:09:50.082Z,99.90
2023-11-30T17:12:23.471Z,99.90
2023-11-30T17:14:54.916Z,99.90
2023-11-30T17:17:36.080Z,99.90
2023-11-30T17:20:17.622Z,99.90
2023-11-30T17:22:50.112Z,99.90
2023-11-30T17:25:23.032Z,99.90
2023-11-30T17:27:55.148Z,99.90
2023-11-30T17:30:27.124Z,99.90
2023-11-30T17:32:56.606Z,99.90
2023-11-30T17:35:28.244Z,99.90
2023-11-30T17:37:58.634Z,99.90
2023-11-30T17:40:28.775Z,99.90
2023-11-30T17:43:03.085Z,99.90
2023-11-30T17:45:32.934Z,99.90
2023-11-30T17:48:02.816Z,99.90
2023-11-30T17:50:33.705Z,99.90
2023-11-30T17:53:04.087Z,99.90
2023-11-30T17:55:34.525Z,99.90
2023-11-30T17:58:05.458Z,99.90
2023-11-30T18:00:35.192Z,99.90
2023-11-30T18:03:04.602Z,99.90
2023-11-30T18:05:34.233Z,99.90
2023-11-30T18:08:03.566Z,99.90
2023-11-30T18:10:32.930Z,99.90
2023-11-30T18:13:02.616Z,99.90
2023-11-30T18:15:35.453Z,99.90
2023-11-30T18:18:05.640Z,99.90
2023-11-30T18:20:35.574Z,99.90
2023-11-30T18:23:04.968Z,99.90
2023-11-30T18:25:34.630Z,99.90
2023-11-30T18:28:04.446Z,99.90
2023-11-30T18:30:36.578Z,99.90
2023-11-30T18:33:08.114Z,99.90
2023-11-30T18:35:37.642Z,99.90
2023-11-30T18:38:07.121Z,99.90
2023-11-30T18:40:37.166Z,99.90
2023-11-30T18:43:07.163Z,99.90
2023-11-30T18:45:40.196Z,99.90
2023-11-30T18:48:11.854Z,99.90
2023-11-30T18:50:42.083Z,99.90
2023-11-30T18:53:11.686Z,99.90
2023-11-30T18:55:44.545Z,99.90
2023-11-30T18:58:21.526Z,99.90
2023-11-30T19:00:55.501Z,99.90
2023-11-30T19:03:27.849Z,99.90
2023-11-30T19:06:00.551Z,99.90
2023-11-30T19:08:31.507Z,99.90
2023-11-30T19:11:02.947Z,99.90
2023-11-30T19:13:35.865Z,99.90
2023-11-30T19:16:12.155Z,99.90
2023-11-30T19:18:41.899Z,99.90
2023-11-30T19:21:13.273Z,99.90
2023-11-30T19:23:49.393Z,99.90
2023-11-30T19:26:19.366Z,99.90
2023-11-30T19:28:48.833Z,99.90
2023-11-30T19:31:24.371Z,99.90
2023-11-30T19:34:02.237Z,99.90
2023-11-30T19:36:32.204Z,99.90
2023-11-30T19:39:01.924Z,99.90
2023-11-30T19:41:33.471Z,99.90
2023-11-30T19:44:06.020Z,99.90
2023-11-30T19:46:41.854Z,99.90
2023-11-30T19:49:17.373Z,99.90
2023-11-30T19:51:51.605Z,99.90
2023-11-30T19:54:21.080Z,99.90
2023-11-30T19:56:50.352Z,99.90
2023-11-30T19:59:20.995Z,99.90
2023-11-30T20:01:52.486Z,99.90
2023-11-30T20:04:22.549Z,99.90
2023-11-30T20:06:52.110Z,99.90
2023-11-30T20:09:21.565Z,99.90
2023-11-30T20:11:51.388Z,99.90
2023-11-30T20:14:21.388Z,99.90
2023-11-30T20:16:52.385Z,99.90
2023-11-30T20:19:22.132Z,99.90
2023-11-30T20:21:51.649Z,99.90
2023-11-30T20:24:21.273Z,99.90
2023-11-30T20:26:50.568Z,99.90
2023-11-30T20:29:19.869Z,99.90
2023-11-30T20:31:49.582Z,99.90
2023-11-30T20:34:21.445Z,99.90
2023-11-30T20:36:52.969Z,99.90
2023-11-30T20:39:23.790Z,99.90
2023-11-30T20:41:53.994Z,99.90
2023-11-30T20:44:23.721Z,99.90
2023-11-30T20:46:53.477Z,99.90
2023-11-30T20:49:27.577Z,99.90
2023-11-30T20:51:57.424Z,99.90
2023-11-30T20:54:26.964Z,99.90
2023-11-30T20:56:58.415Z,99.90
2023-11-30T20:59:32.200Z,99.90
2023-11-30T21:02:05.929Z,99.90
2023-11-30T21:04:47.580Z,99.90
2023-11-30T21:07:28.919Z,99.90
2023-11-30T21:10:01.550Z,99.90
2023-11-30T21:12:31.846Z,99.90
2023-11-30T21:15:01.640Z,99.90
2023-11-30T21:17:31.811Z,99.90
2023-11-30T21:20:03.314Z,99.90
2023-11-30T21:22:36.027Z,99.90
2023-11-30T21:25:06.002Z,99.90
2023-11-30T21:27:35.926Z,99.90
2023-11-30T21:30:07.702Z,99.90
2023-11-30T21:32:37.477Z,99.90
2023-11-30T21:35:13.945Z,99.90
2023-11-30T21:37:43.416Z,99.90
2023-11-30T21:40:14.350Z,99.90
2023-11-30T21:42:44.301Z,99.90
2023-11-30T21:45:14.270Z,99.90
2023-11-30T21:47:44.113Z,99.90
2023-11-30T21:50:23.552Z,99.90
2023-11-30T21:52:54.959Z,99.90
2023-11-30T21:55:25.074Z,99.90
2023-11-30T21:57:55.128Z,99.90
2023-11-30T22:00:25.186Z,99.90
2023-11-30T22:02:55.705Z,99.90
2023-11-30T22:05:33.358Z,99.90
2023-11-30T22:08:09.589Z,99.90
2023-11-30T22:10:41.610Z,99.90
2023-11-30T22:13:11.956Z,99.90
2023-11-30T22:15:41.746Z,99.90
2023-11-30T22:18:13.487Z,99.90
2023-11-30T22:20:47.699Z,99.90
2023-11-30T22:23:17.627Z,99.90
2023-11-30T22:25:51.173Z,99.90
2023-11-30T22:28:25.453Z,99.90
2023-11-30T22:30:58.284Z,99.90
2023-11-30T22:33:35.804Z,99.90
2023-11-30T22:36:08.655Z,99.90
2023-11-30T22:38:43.942Z,99.90
2023-11-30T22:41:15.790Z,99.90
2023-11-30T22:43:45.145Z,99.90
2023-11-30T22:46:21.641Z,99.90
2023-11-30T22:48:53.746Z,99.90
2023-11-30T22:51:27.891Z,99.90
2023-11-30T22:53:59.371Z,99.90
2023-11-30T22:56:31.187Z,99.90
2023-11-30T22:59:01.079Z,99.90
2023-11-30T23:01:32.551Z,99.90
2023-11-30T23:04:03.046Z,99.90
2023-11-30T23:06:34.478Z,99.90
2023-11-30T23:09:08.729Z,99.90
2023-11-30T23:11:38.185Z,99.90
2023-11-30T23:14:10.448Z,99.90
2023-11-30T23:16:43.233Z,99.90
2023-11-30T23:19:16.212Z,99.90
2023-11-30T23:21:50.005Z,99.90
2023-11-30T23:24:25.884Z,99.90
2023-11-30T23:27:01.034Z,99.90
2023-11-30T23:29:37.408Z,99.90
2023-11-30T23:32:10.660Z,99.90
2023-11-30T23:34:45.491Z,99.90
2023-11-30T23:37:19.237Z,99.90
2023-11-30T23:39:49.232Z,99.90
2023-11-30T23:42:18.953Z,99.90
2023-11-30T23:44:48.925Z,99.90
2023-11-30T23:47:18.324Z,99.90
2023-11-30T23:49:48.353Z,99.90
2023-11-30T23:52:19.506Z,99.90
2023-11-30T23:54:53.470Z,99.90
2023-11-30T23:57:29.352Z,99.90
